Warning: Javascript must be enabled to use all the features on this page!


Page Loading - Please Wait...

Click to hideNews Bulletins

Peak Streamflow for the Nation

USGS 03076500 YOUGHIOGHENY RIVER AT FRIENDSVILLE, MD

Garrett County, Maryland
Hydrologic Unit Code 05020006
Latitude  39°39'13.0", Longitude  79°24'29.9" NAD83
Drainage area 295  square miles
Gage datum 1,486.82 feet above NAVD88
Output formats
Table
Graph
Tab-separated file
peakfq (watstore) format
Reselect output format
Water
Year
Date Gage
Height
(feet)
Stream-
flow
(cfs)
1899 1899-05-19 10.303 8,380
1900 1900-06-18 7.103 3,060
1901 1900-11-26 9.503 6,900
1902 1902-03-01 11.503 10,800
1903 1903-02-16 9.003 6,030
1904 1904-01-23 9.403 6,720
1905 1904-12-25 8.603 5,360
1923 1923-02-03 11.903,6 11,600
1924 1924-03-29 14.203 15,600
1925 1925-02-14 5.003 625
1926 1925-10-17 7.003 2,9206
1927 1927-01-21 8.756 5,6906
1928 1928-05-01 9.82 7,4406
1929 1929-04-10 8.60 5,3606
1930 1929-10-02 10.00 7,8106
1931 1931-09-26 7.70 3,9506
1940 1940-02-11 8.10 7,4406
1941 1941-06-04 6.97 7,7806
1942 1942-04-10 5.48 4,4806
1943 1942-12-30 6.18 6,6206
1944 1944-03-24 5.812 5,3606
1945 1945-02-27 7.21 8,3806
1946 1946-01-07 5.22 3,7206
1947 1947-03-15 5.452 4,2606
1948 1948-04-13 6.80 7,4206
1949 1948-12-16 7.97 10,4006
1950 1950-01-31 6.11 6,2806
1951 1951-02-01 6.55 6,8206
1952 1952-01-27 5.89 5,6306
1953 1953-01-24 5.25 3,8806
1954 1954-01-21 4.60 2,4306
1955 1954-10-16 8.99 13,0006
1956 1956-08-06 8.54 11,8006
1957 1957-02-10 6.98 7,8506
1958 1957-12-26 6.08 5,7306
1959 1959-01-22 5.48 4,3606
1960 1960-03-30 7.36 8,7606
1961 1961-02-19 6.70 7,1806
1962 1962-03-21 6.17 6,0106
1963 1963-03-05 8.48 11,6006
1964 1964-03-05 7.70 9,6206
1965 1965-01-03 5.41 4,2006
1966 1966-02-14 6.11 5,8006
1967 1967-03-06 8.05 10,5006
1968 1968-05-24 6.58 6,9206
1969 1969-03-21 4.70 2,9806
1970 1970-04-02 6.71 7,2206
1971 1970-12-22 6.04 5,7206
1972 1972-06-23 6.72 7,2506
1973 1972-12-09 6.96 7,8006
1974 1974-01-11 6.97 7,8306
1975 1975-01-01 6.06 5,7606
1976 1976-01-01 5.69 4,9806
1977 1977-03-04 5.66 4,9106
1978 1978-07-03 7.21 8,3906
1979 1979-03-05 6.88 7,3006
1980 1980-08-18 6.22 6,0106
1981 1981-04-13 5.82 5,2706
1982 1982-03-17 5.66 4,9506
1983 1983-05-16 5.27 4,0306
1984 1984-04-15 6.61 6,7606
1985 1985-07-10 7.34 8,2606
1986 1985-11-05 8.59 13,0006
1987 1986-12-10 5.10 3,7306
1988 1988-01-20 5.20 3,9306
1989 1989-03-06 5.87 5,3506
1990 1990-07-13 7.05 8,4906
1991 1990-12-31 6.11 5,9106
1992 1992-07-27 5.67 4,9306
1993 1993-03-27 5.96 5,5406
1994 1994-02-09 8.25 12,0006
1995 1995-02-24 4.85 3,2506
1996 1996-01-19 9.54 16,1006
1997 1996-12-02 5.39 4,3206
1998 1998-04-20 5.46 4,4706
1999 1999-01-24 5.10 3,7306
2000 2000-02-19 8.63 13,1006
2001 2001-07-27 5.56 4,6906
2002 2002-04-28 5.83 5,2706
2003 2003-09-19 7.20 9,4906
2004 2004-03-06 6.65 8,0706
2005 2005-03-29 6.18 6,8606
2006 2006-04-22 5.89 6,0606
2007 2007-03-02 5.74 5,6206
2008 2007-12-10 6.08 6,6006
2009 2009-05-04 6.31 7,1906
2010 2010-03-14 7.83 11,2006
2011 2011-04-20 6.21 6,9306
2012 2012-03-01 7.04 9,0706
2013 2013-08-28 5.92 6,1506
2014 2014-05-16 6.27 7,0906
2015 2015-03-04 7.45 10,2006
2016 2016-02-03 5.22 4,2506
2017 2017-07-29 7.92 11,4006
2018 2018-02-16 8.74 13,7006
2019 2019-06-30 7.10 9,2206
2020 2019-12-17 5.84 5,9106
?
  Peak Gage-Height Qualification Codes.
?
  Peak Streamflow Qualification Codes.